sensor_id;sensor_type;location;lat;lon;timestamp;temperature;humidity
75357;HTU21D;63946;51.986;5.930;2023-06-22T00:01:35;20.90;57.30
75357;HTU21D;63946;51.986;5.930;2023-06-22T00:04:04;20.86;57.39
75357;HTU21D;63946;51.986;5.930;2023-06-22T00:06:33;20.85;57.32
75357;HTU21D;63946;51.986;5.930;2023-06-22T00:09:01;20.81;57.34
75357;HTU21D;63946;51.986;5.930;2023-06-22T00:11:33;20.81;57.29
75357;HTU21D;63946;51.986;5.930;2023-06-22T00:14:02;20.76;57.41
75357;HTU21D;63946;51.986;5.930;2023-06-22T00:16:34;20.72;57.58
75357;HTU21D;63946;51.986;5.930;2023-06-22T00:19:03;20.69;57.74
75357;HTU21D;63946;51.986;5.930;2023-06-22T00:21:32;20.64;57.91
75357;HTU21D;63946;51.986;5.930;2023-06-22T00:24:01;20.65;57.96
75357;HTU21D;63946;51.986;5.930;2023-06-22T00:26:30;20.70;57.97
75357;HTU21D;63946;51.986;5.930;2023-06-22T00:28:59;20.73;58.07
75357;HTU21D;63946;51.986;5.930;2023-06-22T00:31:30;20.75;58.11
75357;HTU21D;63946;51.986;5.930;2023-06-22T00:33:59;20.75;58.13
75357;HTU21D;63946;51.986;5.930;2023-06-22T00:36:27;20.75;58.30
75357;HTU21D;63946;51.986;5.930;2023-06-22T00:38:56;20.75;58.22
75357;HTU21D;63946;51.986;5.930;2023-06-22T00:41:25;20.71;58.29
75357;HTU21D;63946;51.986;5.930;2023-06-22T00:43:54;20.62;58.56
75357;HTU21D;63946;51.986;5.930;2023-06-22T00:46:24;20.61;58.72
75357;HTU21D;63946;51.986;5.930;2023-06-22T00:48:53;20.60;58.77
75357;HTU21D;63946;51.986;5.930;2023-06-22T00:51:23;20.62;58.75
75357;HTU21D;63946;51.986;5.930;2023-06-22T00:53:52;20.61;58.87
75357;HTU21D;63946;51.986;5.930;2023-06-22T00:56:22;20.61;58.96
75357;HTU21D;63946;51.986;5.930;2023-06-22T00:58:52;20.59;59.06
75357;HTU21D;63946;51.986;5.930;2023-06-22T01:01:23;20.60;59.12
75357;HTU21D;63946;51.986;5.930;2023-06-22T01:03:51;20.55;59.19
75357;HTU21D;63946;51.986;5.930;2023-06-22T01:06:32;20.53;59.36
75357;HTU21D;63946;51.986;5.930;2023-06-22T01:09:15;20.51;59.65
75357;HTU21D;63946;51.986;5.930;2023-06-22T01:11:53;20.50;59.44
75357;HTU21D;63946;51.986;5.930;2023-06-22T01:15:04;20.49;59.62
75357;HTU21D;63946;51.986;5.930;2023-06-22T01:17:29;20.46;59.59
75357;HTU21D;63946;51.986;5.930;2023-06-22T01:20:00;20.43;59.70
75357;HTU21D;63946;51.986;5.930;2023-06-22T01:22:33;20.43;59.88
75357;HTU21D;63946;51.986;5.930;2023-06-22T01:25:15;20.43;59.65
75357;HTU21D;63946;51.986;5.930;2023-06-22T01:27:56;20.44;59.44
75357;HTU21D;63946;51.986;5.930;2023-06-22T01:30:28;20.44;59.32
75357;HTU21D;63946;51.986;5.930;2023-06-22T01:33:05;20.37;59.49
75357;HTU21D;63946;51.986;5.930;2023-06-22T01:35:34;20.30;59.70
75357;HTU21D;63946;51.986;5.930;2023-06-22T01:38:03;20.24;59.99
75357;HTU21D;63946;51.986;5.930;2023-06-22T01:40:33;20.18;60.04
75357;HTU21D;63946;51.986;5.930;2023-06-22T01:43:03;20.15;60.15
75357;HTU21D;63946;51.986;5.930;2023-06-22T01:45:35;20.11;60.25
75357;HTU21D;63946;51.986;5.930;2023-06-22T01:48:04;20.13;60.13
75357;HTU21D;63946;51.986;5.930;2023-06-22T01:50:35;20.15;60.00
75357;HTU21D;63946;51.986;5.930;2023-06-22T01:53:04;20.15;60.06
75357;HTU21D;63946;51.986;5.930;2023-06-22T01:55:33;20.14;60.07
75357;HTU21D;63946;51.986;5.930;2023-06-22T01:58:02;20.14;60.00
75357;HTU21D;63946;51.986;5.930;2023-06-22T02:00:37;20.15;59.94
75357;HTU21D;63946;51.986;5.930;2023-06-22T02:03:19;20.14;59.90
75357;HTU21D;63946;51.986;5.930;2023-06-22T02:06:08;20.11;60.08
75357;HTU21D;63946;51.986;5.930;2023-06-22T02:08:49;20.07;60.24
75357;HTU21D;63946;51.986;5.930;2023-06-22T02:11:21;20.07;60.24
75357;HTU21D;63946;51.986;5.930;2023-06-22T02:13:51;20.05;60.35
75357;HTU21D;63946;51.986;5.930;2023-06-22T02:16:20;20.02;60.41
75357;HTU21D;63946;51.986;5.930;2023-06-22T02:18:50;19.98;60.61
75357;HTU21D;63946;51.986;5.930;2023-06-22T02:21:20;19.97;60.72
75357;HTU21D;63946;51.986;5.930;2023-06-22T02:23:49;19.88;60.98
75357;HTU21D;63946;51.986;5.930;2023-06-22T02:26:17;19.86;61.15
75357;HTU21D;63946;51.986;5.930;2023-06-22T02:28:46;19.85;61.20
75357;HTU21D;63946;51.986;5.930;2023-06-22T02:31:17;19.87;61.14
75357;HTU21D;63946;51.986;5.930;2023-06-22T02:33:46;19.86;61.15
75357;HTU21D;63946;51.986;5.930;2023-06-22T02:36:18;19.83;61.30
75357;HTU21D;63946;51.986;5.930;2023-06-22T02:38:48;19.81;61.42
75357;HTU21D;63946;51.986;5.930;2023-06-22T02:41:17;19.80;61.50
75357;HTU21D;63946;51.986;5.930;2023-06-22T02:43:50;19.80;61.63
75357;HTU21D;63946;51.986;5.930;2023-06-22T02:46:19;19.81;61.73
75357;HTU21D;63946;51.986;5.930;2023-06-22T02:48:49;19.77;61.89
75357;HTU21D;63946;51.986;5.930;2023-06-22T02:51:18;19.77;62.02
75357;HTU21D;63946;51.986;5.930;2023-06-22T02:53:46;19.77;62.12
75357;HTU21D;63946;51.986;5.930;2023-06-22T02:56:23;19.82;62.07
75357;HTU21D;63946;51.986;5.930;2023-06-22T02:58:57;19.82;61.99
75357;HTU21D;63946;51.986;5.930;2023-06-22T03:01:32;19.84;61.91
75357;HTU21D;63946;51.986;5.930;2023-06-22T03:04:08;19.87;61.86
75357;HTU21D;63946;51.986;5.930;2023-06-22T03:06:37;19.84;62.14
75357;HTU21D;63946;51.986;5.930;2023-06-22T03:09:09;19.82;62.29
75357;HTU21D;63946;51.986;5.930;2023-06-22T03:11:38;19.85;62.42
75357;HTU21D;63946;51.986;5.930;2023-06-22T03:14:07;19.87;62.33
75357;HTU21D;63946;51.986;5.930;2023-06-22T03:16:35;19.89;62.44
75357;HTU21D;63946;51.986;5.930;2023-06-22T03:19:06;19.86;62.79
75357;HTU21D;63946;51.986;5.930;2023-06-22T03:21:37;19.85;63.11
75357;HTU21D;63946;51.986;5.930;2023-06-22T03:24:07;19.86;63.20
75357;HTU21D;63946;51.986;5.930;2023-06-22T03:26:37;19.86;63.37
75357;HTU21D;63946;51.986;5.930;2023-06-22T03:29:06;19.86;63.47
75357;HTU21D;63946;51.986;5.930;2023-06-22T03:31:35;19.82;63.76
75357;HTU21D;63946;51.986;5.930;2023-06-22T03:34:05;19.79;63.82
75357;HTU21D;63946;51.986;5.930;2023-06-22T03:36:34;19.81;63.68
75357;HTU21D;63946;51.986;5.930;2023-06-22T03:39:02;19.81;63.85
75357;HTU21D;63946;51.986;5.930;2023-06-22T03:41:31;19.79;63.94
75357;HTU21D;63946;51.986;5.930;2023-06-22T03:44:01;19.75;64.14
75357;HTU21D;63946;51.986;5.930;2023-06-22T03:46:30;19.75;64.23
75357;HTU21D;63946;51.986;5.930;2023-06-22T03:49:01;19.72;64.46
75357;HTU21D;63946;51.986;5.930;2023-06-22T03:51:31;19.69;64.60
75357;HTU21D;63946;51.986;5.930;2023-06-22T03:54:00;19.67;64.65
75357;HTU21D;63946;51.986;5.930;2023-06-22T03:56:29;19.63;64.86
75357;HTU21D;63946;51.986;5.930;2023-06-22T03:58:57;19.61;64.97
75357;HTU21D;63946;51.986;5.930;2023-06-22T04:01:26;19.60;65.08
75357;HTU21D;63946;51.986;5.930;2023-06-22T04:03:59;19.58;65.25
75357;HTU21D;63946;51.986;5.930;2023-06-22T04:06:28;19.56;65.42
75357;HTU21D;63946;51.986;5.930;2023-06-22T04:08:57;19.57;65.48
75357;HTU21D;63946;51.986;5.930;2023-06-22T04:11:26;19.60;65.40
75357;HTU21D;63946;51.986;5.930;2023-06-22T04:13:58;19.63;65.42
75357;HTU21D;63946;51.986;5.930;2023-06-22T04:16:27;19.60;65.60
75357;HTU21D;63946;51.986;5.930;2023-06-22T04:18:55;19.55;65.79
75357;HTU21D;63946;51.986;5.930;2023-06-22T04:21:24;19.51;66.08
75357;HTU21D;63946;51.986;5.930;2023-06-22T04:23:53;19.46;66.20
75357;HTU21D;63946;51.986;5.930;2023-06-22T04:26:22;19.45;66.33
75357;HTU21D;63946;51.986;5.930;2023-06-22T04:28:50;19.44;66.43
75357;HTU21D;63946;51.986;5.930;2023-06-22T04:31:21;19.46;66.35
75357;HTU21D;63946;51.986;5.930;2023-06-22T04:33:59;19.54;66.17
75357;HTU21D;63946;51.986;5.930;2023-06-22T04:36:38;19.54;66.31
75357;HTU21D;63946;51.986;5.930;2023-06-22T04:39:09;19.54;66.49
75357;HTU21D;63946;51.986;5.930;2023-06-22T04:41:39;19.58;66.35
75357;HTU21D;63946;51.986;5.930;2023-06-22T04:44:20;19.65;66.31
75357;HTU21D;63946;51.986;5.930;2023-06-22T04:46:55;19.80;66.22
75357;HTU21D;63946;51.986;5.930;2023-06-22T04:49:26;19.96;65.97
75357;HTU21D;63946;51.986;5.930;2023-06-22T04:52:03;20.09;65.66
75357;HTU21D;63946;51.986;5.930;2023-06-22T04:54:33;20.20;65.32
75357;HTU21D;63946;51.986;5.930;2023-06-22T04:57:03;20.33;65.08
75357;HTU21D;63946;51.986;5.930;2023-06-22T04:59:36;20.49;64.76
75357;HTU21D;63946;51.986;5.930;2023-06-22T05:02:07;20.62;64.40
75357;HTU21D;63946;51.986;5.930;2023-06-22T05:04:36;20.75;64.15
75357;HTU21D;63946;51.986;5.930;2023-06-22T05:07:05;20.87;63.89
75357;HTU21D;63946;51.986;5.930;2023-06-22T05:09:35;21.03;63.51
75357;HTU21D;63946;51.986;5.930;2023-06-22T05:12:04;21.29;62.99
75357;HTU21D;63946;51.986;5.930;2023-06-22T05:14:33;21.52;62.31
75357;HTU21D;63946;51.986;5.930;2023-06-22T05:17:02;21.68;61.91
75357;HTU21D;63946;51.986;5.930;2023-06-22T05:19:39;21.91;61.28
75357;HTU21D;63946;51.986;5.930;2023-06-22T05:22:17;21.93;61.05
75357;HTU21D;63946;51.986;5.930;2023-06-22T05:24:46;21.99;60.96
75357;HTU21D;63946;51.986;5.930;2023-06-22T05:27:15;22.20;60.41
75357;HTU21D;63946;51.986;5.930;2023-06-22T05:29:44;22.36;60.10
75357;HTU21D;63946;51.986;5.930;2023-06-22T05:32:13;22.49;59.50
75357;HTU21D;63946;51.986;5.930;2023-06-22T05:34:41;22.58;59.28
75357;HTU21D;63946;51.986;5.930;2023-06-22T05:37:10;22.76;58.72
75357;HTU21D;63946;51.986;5.930;2023-06-22T05:39:39;22.80;58.58
75357;HTU21D;63946;51.986;5.930;2023-06-22T05:42:08;22.93;58.27
75357;HTU21D;63946;51.986;5.930;2023-06-22T05:44:40;23.13;57.65
75357;HTU21D;63946;51.986;5.930;2023-06-22T05:47:10;23.27;57.39
75357;HTU21D;63946;51.986;5.930;2023-06-22T05:49:38;23.42;57.03
75357;HTU21D;63946;51.986;5.930;2023-06-22T05:52:07;23.55;56.37
75357;HTU21D;63946;51.986;5.930;2023-06-22T05:54:37;23.56;56.19
75357;HTU21D;63946;51.986;5.930;2023-06-22T05:57:07;23.61;56.00
75357;HTU21D;63946;51.986;5.930;2023-06-22T05:59:36;23.68;56.13
75357;HTU21D;63946;51.986;5.930;2023-06-22T06:02:05;23.89;55.60
75357;HTU21D;63946;51.986;5.930;2023-06-22T06:04:34;23.94;55.07
75357;HTU21D;63946;51.986;5.930;2023-06-22T06:07:03;23.80;55.36
75357;HTU21D;63946;51.986;5.930;2023-06-22T06:09:32;23.82;55.39
75357;HTU21D;63946;51.986;5.930;2023-06-22T06:12:01;23.94;55.14
75357;HTU21D;63946;51.986;5.930;2023-06-22T06:14:29;24.08;54.54
75357;HTU21D;63946;51.986;5.930;2023-06-22T06:16:58;24.02;54.62
75357;HTU21D;63946;51.986;5.930;2023-06-22T06:19:27;24.02;54.61
75357;HTU21D;63946;51.986;5.930;2023-06-22T06:21:56;24.00;54.45
75357;HTU21D;63946;51.986;5.930;2023-06-22T06:24:26;23.99;54.30
75357;HTU21D;63946;51.986;5.930;2023-06-22T06:26:55;23.87;54.70
75357;HTU21D;63946;51.986;5.930;2023-06-22T06:29:23;23.91;54.99
75357;HTU21D;63946;51.986;5.930;2023-06-22T06:31:52;24.20;54.75
75357;HTU21D;63946;51.986;5.930;2023-06-22T06:34:22;24.27;54.07
75357;HTU21D;63946;51.986;5.930;2023-06-22T06:36:51;24.13;54.21
75357;HTU21D;63946;51.986;5.930;2023-06-22T06:39:20;24.26;54.26
75357;HTU21D;63946;51.986;5.930;2023-06-22T06:41:51;24.40;53.71
75357;HTU21D;63946;51.986;5.930;2023-06-22T06:44:19;24.54;53.23
75357;HTU21D;63946;51.986;5.930;2023-06-22T06:46:48;24.57;53.21
75357;HTU21D;63946;51.986;5.930;2023-06-22T06:49:17;24.65;53.01
75357;HTU21D;63946;51.986;5.930;2023-06-22T06:51:46;24.63;53.11
75357;HTU21D;63946;51.986;5.930;2023-06-22T06:54:15;24.59;53.02
75357;HTU21D;63946;51.986;5.930;2023-06-22T06:56:46;24.62;53.10
75357;HTU21D;63946;51.986;5.930;2023-06-22T06:59:15;24.78;52.98
75357;HTU21D;63946;51.986;5.930;2023-06-22T07:01:44;24.93;52.34
75357;HTU21D;63946;51.986;5.930;2023-06-22T07:04:14;24.94;52.47
75357;HTU21D;63946;51.986;5.930;2023-06-22T07:06:43;25.05;52.12
75357;HTU21D;63946;51.986;5.930;2023-06-22T07:09:12;25.02;52.29
75357;HTU21D;63946;51.986;5.930;2023-06-22T07:11:40;24.98;52.24
75357;HTU21D;63946;51.986;5.930;2023-06-22T07:14:09;24.74;52.26
75357;HTU21D;63946;51.986;5.930;2023-06-22T07:16:38;24.48;52.62
75357;HTU21D;63946;51.986;5.930;2023-06-22T07:19:07;24.38;52.94
75357;HTU21D;63946;51.986;5.930;2023-06-22T07:21:36;24.31;52.89
75357;HTU21D;63946;51.986;5.930;2023-06-22T07:24:06;24.35;52.94
75357;HTU21D;63946;51.986;5.930;2023-06-22T07:26:35;24.53;52.59
75357;HTU21D;63946;51.986;5.930;2023-06-22T07:29:03;24.55;52.40
75357;HTU21D;63946;51.986;5.930;2023-06-22T07:31:33;24.62;52.72
75357;HTU21D;63946;51.986;5.930;2023-06-22T07:34:02;24.80;52.71
75357;HTU21D;63946;51.986;5.930;2023-06-22T07:36:30;24.85;52.17
75357;HTU21D;63946;51.986;5.930;2023-06-22T07:39:02;24.76;52.05
75357;HTU21D;63946;51.986;5.930;2023-06-22T07:41:32;24.80;52.00
75357;HTU21D;63946;51.986;5.930;2023-06-22T07:44:02;24.82;52.00
75357;HTU21D;63946;51.986;5.930;2023-06-22T07:46:32;24.85;52.19
75357;HTU21D;63946;51.986;5.930;2023-06-22T07:49:01;24.89;52.21
75357;HTU21D;63946;51.986;5.930;2023-06-22T07:51:34;24.83;52.06
75357;HTU21D;63946;51.986;5.930;2023-06-22T07:54:02;24.84;51.72
75357;HTU21D;63946;51.986;5.930;2023-06-22T07:56:31;24.75;51.75
75357;HTU21D;63946;51.986;5.930;2023-06-22T07:59:00;24.74;51.64
75357;HTU21D;63946;51.986;5.930;2023-06-22T08:01:29;24.73;51.65
75357;HTU21D;63946;51.986;5.930;2023-06-22T08:03:58;24.69;51.93
75357;HTU21D;63946;51.986;5.930;2023-06-22T08:06:30;24.71;51.98
75357;HTU21D;63946;51.986;5.930;2023-06-22T08:08:58;24.73;51.72
75357;HTU21D;63946;51.986;5.930;2023-06-22T08:11:27;24.68;51.76
75357;HTU21D;63946;51.986;5.930;2023-06-22T08:13:56;24.66;51.76
75357;HTU21D;63946;51.986;5.930;2023-06-22T08:16:25;24.74;51.79
75357;HTU21D;63946;51.986;5.930;2023-06-22T08:18:57;24.76;51.79
75357;HTU21D;63946;51.986;5.930;2023-06-22T08:21:25;24.80;51.59
75357;HTU21D;63946;51.986;5.930;2023-06-22T08:23:55;24.78;51.73
75357;HTU21D;63946;51.986;5.930;2023-06-22T08:26:24;24.88;51.63
75357;HTU21D;63946;51.986;5.930;2023-06-22T08:28:53;24.97;51.36
75357;HTU21D;63946;51.986;5.930;2023-06-22T08:31:22;24.99;51.08
75357;HTU21D;63946;51.986;5.930;2023-06-22T08:33:50;24.92;51.07
75357;HTU21D;63946;51.986;5.930;2023-06-22T08:36:28;24.89;51.01
75357;HTU21D;63946;51.986;5.930;2023-06-22T08:39:03;25.01;51.36
75357;HTU21D;63946;51.986;5.930;2023-06-22T08:41:32;25.29;51.04
75357;HTU21D;63946;51.986;5.930;2023-06-22T08:44:01;25.50;50.56
75357;HTU21D;63946;51.986;5.930;2023-06-22T08:46:30;25.60;50.23
75357;HTU21D;63946;51.986;5.930;2023-06-22T08:48:59;25.61;50.09
75357;HTU21D;63946;51.986;5.930;2023-06-22T08:51:28;25.56;49.88
75357;HTU21D;63946;51.986;5.930;2023-06-22T08:53:57;25.57;49.60
75357;HTU21D;63946;51.986;5.930;2023-06-22T08:56:26;25.56;49.49
75357;HTU21D;63946;51.986;5.930;2023-06-22T08:58:54;25.54;49.46
75357;HTU21D;63946;51.986;5.930;2023-06-22T09:01:23;25.51;49.26
75357;HTU21D;63946;51.986;5.930;2023-06-22T09:03:52;25.50;49.11
75357;HTU21D;63946;51.986;5.930;2023-06-22T09:06:24;25.45;49.25
75357;HTU21D;63946;51.986;5.930;2023-06-22T09:08:52;25.44;49.08
75357;HTU21D;63946;51.986;5.930;2023-06-22T09:11:21;25.47;48.57
75357;HTU21D;63946;51.986;5.930;2023-06-22T09:13:50;25.53;48.57
75357;HTU21D;63946;51.986;5.930;2023-06-22T09:16:19;25.81;48.36
75357;HTU21D;63946;51.986;5.930;2023-06-22T09:18:48;26.24;47.19
75357;HTU21D;63946;51.986;5.930;2023-06-22T09:21:17;26.41;46.99
75357;HTU21D;63946;51.986;5.930;2023-06-22T09:23:46;26.45;46.21
75357;HTU21D;63946;51.986;5.930;2023-06-22T09:26:20;26.32;45.99
75357;HTU21D;63946;51.986;5.930;2023-06-22T09:28:49;26.13;46.06
75357;HTU21D;63946;51.986;5.930;2023-06-22T09:31:18;26.11;46.06
75357;HTU21D;63946;51.986;5.930;2023-06-22T09:33:52;26.17;45.88
75357;HTU21D;63946;51.986;5.930;2023-06-22T09:36:21;26.17;45.12
75357;HTU21D;63946;51.986;5.930;2023-06-22T09:38:50;26.15;45.61
75357;HTU21D;63946;51.986;5.930;2023-06-22T09:41:24;26.16;45.86
75357;HTU21D;63946;51.986;5.930;2023-06-22T09:43:53;26.19;45.64
75357;HTU21D;63946;51.986;5.930;2023-06-22T09:46:22;26.21;45.57
75357;HTU21D;63946;51.986;5.930;2023-06-22T09:48:51;26.20;45.77
75357;HTU21D;63946;51.986;5.930;2023-06-22T09:51:20;26.15;45.57
75357;HTU21D;63946;51.986;5.930;2023-06-22T09:53:50;26.05;45.08
75357;HTU21D;63946;51.986;5.930;2023-06-22T09:56:19;25.98;44.80
75357;HTU21D;63946;51.986;5.930;2023-06-22T09:58:48;25.94;44.88
75357;HTU21D;63946;51.986;5.930;2023-06-22T10:01:18;25.82;45.00
75357;HTU21D;63946;51.986;5.930;2023-06-22T10:03:47;25.74;45.12
75357;HTU21D;63946;51.986;5.930;2023-06-22T10:06:16;25.66;45.44
75357;HTU21D;63946;51.986;5.930;2023-06-22T10:08:45;25.63;45.88
75357;HTU21D;63946;51.986;5.930;2023-06-22T10:11:14;25.61;46.16
75357;HTU21D;63946;51.986;5.930;2023-06-22T10:13:43;25.61;46.32
75357;HTU21D;63946;51.986;5.930;2023-06-22T10:16:11;25.60;46.00
75357;HTU21D;63946;51.986;5.930;2023-06-22T10:18:40;25.54;45.80
75357;HTU21D;63946;51.986;5.930;2023-06-22T10:21:09;25.50;45.86
75357;HTU21D;63946;51.986;5.930;2023-06-22T10:23:38;25.48;46.12
75357;HTU21D;63946;51.986;5.930;2023-06-22T10:26:06;25.48;46.34
75357;HTU21D;63946;51.986;5.930;2023-06-22T10:28:35;25.46;46.41
75357;HTU21D;63946;51.986;5.930;2023-06-22T10:31:04;25.45;46.41
75357;HTU21D;63946;51.986;5.930;2023-06-22T10:33:33;25.43;46.22
75357;HTU21D;63946;51.986;5.930;2023-06-22T10:36:01;25.39;46.30
75357;HTU21D;63946;51.986;5.930;2023-06-22T10:38:30;25.45;46.29
75357;HTU21D;63946;51.986;5.930;2023-06-22T10:40:59;25.48;46.28
75357;HTU21D;63946;51.986;5.930;2023-06-22T10:43:28;25.53;46.41
75357;HTU21D;63946;51.986;5.930;2023-06-22T10:45:57;25.60;46.46
75357;HTU21D;63946;51.986;5.930;2023-06-22T10:48:25;25.68;46.54
75357;HTU21D;63946;51.986;5.930;2023-06-22T10:50:54;25.69;46.41
75357;HTU21D;63946;51.986;5.930;2023-06-22T10:53:23;25.68;46.50
75357;HTU21D;63946;51.986;5.930;2023-06-22T10:55:53;25.64;46.60
75357;HTU21D;63946;51.986;5.930;2023-06-22T10:58:22;25.63;46.68
75357;HTU21D;63946;51.986;5.930;2023-06-22T11:00:50;25.67;46.86
75357;HTU21D;63946;51.986;5.930;2023-06-22T11:03:19;25.67;46.79
75357;HTU21D;63946;51.986;5.930;2023-06-22T11:05:48;25.66;46.69
75357;HTU21D;63946;51.986;5.930;2023-06-22T11:08:17;25.61;46.67
75357;HTU21D;63946;51.986;5.930;2023-06-22T11:10:46;25.60;46.53
75357;HTU21D;63946;51.986;5.930;2023-06-22T11:13:17;25.48;46.59
75357;HTU21D;63946;51.986;5.930;2023-06-22T11:15:46;25.39;46.68
75357;HTU21D;63946;51.986;5.930;2023-06-22T11:18:15;25.34;46.91
75357;HTU21D;63946;51.986;5.930;2023-06-22T11:20:43;25.30;46.99
75357;HTU21D;63946;51.986;5.930;2023-06-22T11:23:13;25.33;47.39
75357;HTU21D;63946;51.986;5.930;2023-06-22T11:25:42;25.33;48.18
75357;HTU21D;63946;51.986;5.930;2023-06-22T11:28:12;25.27;48.53
75357;HTU21D;63946;51.986;5.930;2023-06-22T11:30:40;25.16;48.74
75357;HTU21D;63946;51.986;5.930;2023-06-22T11:33:09;24.98;49.70
75357;HTU21D;63946;51.986;5.930;2023-06-22T11:35:39;24.87;50.60
75357;HTU21D;63946;51.986;5.930;2023-06-22T11:38:08;24.78;51.66
75357;HTU21D;63946;51.986;5.930;2023-06-22T11:40:36;24.66;51.62
75357;HTU21D;63946;51.986;5.930;2023-06-22T11:43:05;24.54;51.83
75357;HTU21D;63946;51.986;5.930;2023-06-22T11:45:34;24.39;52.40
75357;HTU21D;63946;51.986;5.930;2023-06-22T11:48:03;24.28;52.94
75357;HTU21D;63946;51.986;5.930;2023-06-22T11:50:32;24.23;53.26
75357;HTU21D;63946;51.986;5.930;2023-06-22T11:53:02;24.15;53.48
75357;HTU21D;63946;51.986;5.930;2023-06-22T11:55:32;24.06;53.83
75357;HTU21D;63946;51.986;5.930;2023-06-22T11:58:01;24.02;54.60
75357;HTU21D;63946;51.986;5.930;2023-06-22T12:00:31;24.04;54.84
75357;HTU21D;63946;51.986;5.930;2023-06-22T12:03:00;24.01;55.18
75357;HTU21D;63946;51.986;5.930;2023-06-22T12:05:29;23.97;55.43
75357;HTU21D;63946;51.986;5.930;2023-06-22T12:07:57;23.86;56.23
75357;HTU21D;63946;51.986;5.930;2023-06-22T12:10:26;23.73;56.77
75357;HTU21D;63946;51.986;5.930;2023-06-22T12:12:56;23.65;57.28
75357;HTU21D;63946;51.986;5.930;2023-06-22T12:15:26;23.59;57.64
75357;HTU21D;63946;51.986;5.930;2023-06-22T12:17:55;23.55;58.21
75357;HTU21D;63946;51.986;5.930;2023-06-22T12:20:24;23.51;58.83
75357;HTU21D;63946;51.986;5.930;2023-06-22T12:22:54;23.42;58.93
75357;HTU21D;63946;51.986;5.930;2023-06-22T12:25:25;23.26;59.96
75357;HTU21D;63946;51.986;5.930;2023-06-22T12:27:53;23.17;60.92
75357;HTU21D;63946;51.986;5.930;2023-06-22T12:30:22;23.12;61.12
75357;HTU21D;63946;51.986;5.930;2023-06-22T12:32:51;23.06;61.69
75357;HTU21D;63946;51.986;5.930;2023-06-22T12:35:20;22.95;62.02
75357;HTU21D;63946;51.986;5.930;2023-06-22T12:37:48;22.85;62.79
75357;HTU21D;63946;51.986;5.930;2023-06-22T12:40:17;22.75;62.99
75357;HTU21D;63946;51.986;5.930;2023-06-22T12:42:46;22.64;63.41
75357;HTU21D;63946;51.986;5.930;2023-06-22T12:45:15;22.58;63.95
75357;HTU21D;63946;51.986;5.930;2023-06-22T12:47:44;22.50;64.79
75357;HTU21D;63946;51.986;5.930;2023-06-22T12:50:15;22.42;65.26
75357;HTU21D;63946;51.986;5.930;2023-06-22T12:52:45;22.38;65.69
75357;HTU21D;63946;51.986;5.930;2023-06-22T12:55:14;22.33;65.89
75357;HTU21D;63946;51.986;5.930;2023-06-22T12:57:43;22.31;66.18
75357;HTU21D;63946;51.986;5.930;2023-06-22T13:00:12;22.31;66.37
75357;HTU21D;63946;51.986;5.930;2023-06-22T13:02:42;22.18;66.77
75357;HTU21D;63946;51.986;5.930;2023-06-22T13:05:13;22.01;67.11
75357;HTU21D;63946;51.986;5.930;2023-06-22T13:07:42;21.99;67.02
75357;HTU21D;63946;51.986;5.930;2023-06-22T13:10:11;21.97;66.76
75357;HTU21D;63946;51.986;5.930;2023-06-22T13:12:40;21.93;66.54
75357;HTU21D;63946;51.986;5.930;2023-06-22T13:15:10;21.82;66.33
75357;HTU21D;63946;51.986;5.930;2023-06-22T13:17:39;21.74;66.56
75357;HTU21D;63946;51.986;5.930;2023-06-22T13:20:08;21.64;66.71
75357;HTU21D;63946;51.986;5.930;2023-06-22T13:22:36;21.66;66.85
75357;HTU21D;63946;51.986;5.930;2023-06-22T13:25:09;21.59;67.01
75357;HTU21D;63946;51.986;5.930;2023-06-22T13:27:42;21.52;67.31
75357;HTU21D;63946;51.986;5.930;2023-06-22T13:30:11;21.48;67.46
75357;HTU21D;63946;51.986;5.930;2023-06-22T13:32:40;21.46;67.46
75357;HTU21D;63946;51.986;5.930;2023-06-22T13:35:10;21.44;67.80
75357;HTU21D;63946;51.986;5.930;2023-06-22T13:37:42;21.37;68.08
75357;HTU21D;63946;51.986;5.930;2023-06-22T13:40:11;21.37;68.13
75357;HTU21D;63946;51.986;5.930;2023-06-22T13:42:40;21.34;68.20
75357;HTU21D;63946;51.986;5.930;2023-06-22T13:45:09;21.34;68.21
75357;HTU21D;63946;51.986;5.930;2023-06-22T13:47:38;21.40;68.20
75357;HTU21D;63946;51.986;5.930;2023-06-22T13:50:07;21.46;68.40
75357;HTU21D;63946;51.986;5.930;2023-06-22T13:52:39;21.49;68.23
75357;HTU21D;63946;51.986;5.930;2023-06-22T13:55:08;21.48;68.39
75357;HTU21D;63946;51.986;5.930;2023-06-22T13:57:40;21.48;68.33
75357;HTU21D;63946;51.986;5.930;2023-06-22T14:00:10;21.50;68.47
75357;HTU21D;63946;51.986;5.930;2023-06-22T14:02:39;21.51;68.58
75357;HTU21D;63946;51.986;5.930;2023-06-22T14:05:08;21.49;68.81
75357;HTU21D;63946;51.986;5.930;2023-06-22T14:07:37;21.54;68.70
75357;HTU21D;63946;51.986;5.930;2023-06-22T14:10:06;21.54;68.71
75357;HTU21D;63946;51.986;5.930;2023-06-22T14:12:35;21.57;68.77
75357;HTU21D;63946;51.986;5.930;2023-06-22T14:15:05;21.55;68.78
75357;HTU21D;63946;51.986;5.930;2023-06-22T14:17:33;21.57;68.92
75357;HTU21D;63946;51.986;5.930;2023-06-22T14:20:02;21.60;69.17
75357;HTU21D;63946;51.986;5.930;2023-06-22T14:22:33;21.57;68.97
75357;HTU21D;63946;51.986;5.930;2023-06-22T14:25:02;21.58;68.84
75357;HTU21D;63946;51.986;5.930;2023-06-22T14:27:31;21.55;68.95
75357;HTU21D;63946;51.986;5.930;2023-06-22T14:30:00;21.53;68.94
75357;HTU21D;63946;51.986;5.930;2023-06-22T14:32:29;21.46;69.20
75357;HTU21D;63946;51.986;5.930;2023-06-22T14:34:58;21.42;69.28
75357;HTU21D;63946;51.986;5.930;2023-06-22T14:37:27;21.39;69.26
75357;HTU21D;63946;51.986;5.930;2023-06-22T14:39:55;21.39;69.33
75357;HTU21D;63946;51.986;5.930;2023-06-22T14:42:25;21.43;69.21
75357;HTU21D;63946;51.986;5.930;2023-06-22T14:44:55;21.38;69.50
75357;HTU21D;63946;51.986;5.930;2023-06-22T14:47:24;21.34;69.40
75357;HTU21D;63946;51.986;5.930;2023-06-22T14:49:54;21.33;69.40
75357;HTU21D;63946;51.986;5.930;2023-06-22T14:52:23;21.29;69.49
75357;HTU21D;63946;51.986;5.930;2023-06-22T14:54:53;21.28;69.57
75357;HTU21D;63946;51.986;5.930;2023-06-22T14:57:21;21.29;69.49
75357;HTU21D;63946;51.986;5.930;2023-06-22T14:59:50;21.22;69.78
75357;HTU21D;63946;51.986;5.930;2023-06-22T15:02:19;21.19;69.81
75357;HTU21D;63946;51.986;5.930;2023-06-22T15:04:48;21.16;69.96
75357;HTU21D;63946;51.986;5.930;2023-06-22T15:07:18;21.10;70.07
75357;HTU21D;63946;51.986;5.930;2023-06-22T15:09:47;21.01;70.26
75357;HTU21D;63946;51.986;5.930;2023-06-22T15:12:16;20.89;70.68
75357;HTU21D;63946;51.986;5.930;2023-06-22T15:14:45;20.73;70.87
75357;HTU21D;63946;51.986;5.930;2023-06-22T15:17:13;20.64;70.79
75357;HTU21D;63946;51.986;5.930;2023-06-22T15:19:42;20.59;70.88
75357;HTU21D;63946;51.986;5.930;2023-06-22T15:22:11;20.55;71.12
75357;HTU21D;63946;51.986;5.930;2023-06-22T15:24:42;20.50;71.04
75357;HTU21D;63946;51.986;5.930;2023-06-22T15:27:11;20.51;71.30
75357;HTU21D;63946;51.986;5.930;2023-06-22T15:29:40;20.47;71.56
75357;HTU21D;63946;51.986;5.930;2023-06-22T15:32:09;20.51;71.64